createdAt,value
2019-03-21T00:00:28.718Z,39.43
2019-03-21T00:02:58.233Z,40.07
2019-03-21T00:05:29.648Z,35.93
2019-03-21T00:07:58.851Z,36.97
2019-03-21T00:11:24.101Z,35.20
2019-03-21T00:13:54.946Z,33.20
2019-03-21T00:16:24.446Z,33.50
2019-03-21T00:18:53.632Z,37.43
2019-03-21T00:21:23.192Z,37.47
2019-03-21T00:23:52.653Z,36.00
2019-03-21T00:26:22.705Z,39.93
2019-03-21T00:28:52.481Z,36.67
2019-03-21T00:31:21.996Z,37.90
2019-03-21T00:33:51.491Z,39.87
2019-03-21T00:36:21.006Z,37.93
2019-03-21T00:38:50.506Z,45.57
2019-03-21T00:41:19.661Z,40.03
2019-03-21T00:43:49.109Z,42.47
2019-03-21T00:46:18.297Z,44.70
2019-03-21T00:48:47.560Z,49.43
2019-03-21T00:51:16.785Z,46.93
2019-03-21T00:53:45.974Z,45.97
2019-03-21T00:56:15.515Z,46.27
2019-03-21T00:58:45.020Z,49.83
2019-03-21T01:01:14.518Z,48.73
2019-03-21T01:03:44.027Z,43.07
2019-03-21T01:06:13.266Z,47.93
2019-03-21T01:08:42.740Z,44.73
2019-03-21T01:11:12.342Z,48.93
2019-03-21T01:13:41.554Z,49.23
2019-03-21T01:16:11.043Z,42.70
2019-03-21T01:18:40.654Z,46.60
2019-03-21T01:21:10.170Z,37.63
2019-03-21T01:23:39.668Z,44.83
2019-03-21T01:26:08.869Z,43.87
2019-03-21T01:28:38.088Z,42.87
2019-03-21T01:31:07.567Z,41.57
2019-03-21T01:33:36.723Z,40.47
2019-03-21T01:36:06.006Z,39.60
2019-03-21T01:38:35.464Z,39.77
2019-03-21T01:41:04.713Z,38.00
2019-03-21T01:43:34.190Z,42.47
2019-03-21T01:46:05.216Z,45.63
2019-03-21T01:48:34.723Z,38.07
2019-03-21T01:51:03.929Z,41.93
2019-03-21T01:53:33.423Z,41.97
2019-03-21T01:56:02.568Z,43.27
2019-03-21T01:58:32.023Z,45.37
2019-03-21T02:01:01.738Z,42.73
2019-03-21T02:03:31.255Z,43.33
2019-03-21T02:06:00.449Z,45.60
2019-03-21T02:08:32.308Z,43.07
2019-03-21T02:11:01.479Z,51.30
2019-03-21T02:13:31.311Z,44.53
2019-03-21T02:16:00.586Z,53.37
2019-03-21T02:18:29.751Z,50.07
2019-03-21T02:20:59.835Z,44.83
2019-03-21T02:23:29.335Z,48.30
2019-03-21T02:25:59.147Z,54.70
2019-03-21T02:28:28.363Z,50.00
2019-03-21T02:30:57.546Z,47.03
2019-03-21T02:33:29.366Z,51.10
2019-03-21T02:35:58.650Z,51.67
2019-03-21T02:38:27.907Z,51.43
2019-03-21T02:40:57.982Z,49.77
2019-03-21T02:43:27.211Z,50.17
2019-03-21T02:45:56.394Z,52.03
2019-03-21T02:48:25.546Z,52.83
2019-03-21T02:50:55.131Z,52.97
2019-03-21T02:53:24.896Z,49.80
2019-03-21T02:55:54.456Z,55.27
2019-03-21T02:58:23.980Z,51.93
2019-03-21T03:00:53.132Z,51.47
2019-03-21T03:03:22.339Z,53.43
2019-03-21T03:05:51.672Z,55.67
2019-03-21T03:08:20.909Z,57.63
2019-03-21T03:10:51.997Z,53.67
2019-03-21T03:13:21.585Z,54.03
2019-03-21T03:15:50.862Z,47.27
2019-03-21T03:18:20.082Z,57.17
2019-03-21T03:20:49.315Z,54.43
2019-03-21T03:23:18.825Z,59.77
2019-03-21T03:25:50.786Z,66.70
2019-03-21T03:28:21.719Z,61.67
2019-03-21T03:30:51.619Z,62.60
2019-03-21T03:33:20.825Z,61.87
2019-03-21T03:35:50.334Z,65.23
2019-03-21T03:38:19.516Z,70.07
2019-03-21T03:40:51.333Z,67.23
2019-03-21T03:43:20.800Z,70.30
2019-03-21T03:45:50.120Z,73.00
2019-03-21T03:48:20.071Z,75.43
2019-03-21T03:50:50.018Z,73.90
2019-03-21T03:53:19.224Z,76.00
2019-03-21T03:55:48.474Z,75.37
2019-03-21T03:58:19.490Z,75.63
2019-03-21T04:00:48.735Z,82.13
2019-03-21T04:03:18.270Z,85.43
2019-03-21T04:05:47.590Z,84.17
2019-03-21T04:08:16.824Z,80.80
2019-03-21T04:10:46.593Z,79.50
2019-03-21T04:13:16.657Z,82.53
2019-03-21T04:15:52.803Z,82.63
2019-03-21T04:18:18.285Z,83.33
2019-03-21T04:20:48.188Z,92.70
2019-03-21T04:23:18.065Z,82.83
2019-03-21T04:25:53.396Z,80.67
2019-03-21T04:28:23.289Z,88.37
2019-03-21T04:30:52.768Z,85.60
2019-03-21T04:33:22.941Z,92.17
2019-03-21T04:35:52.321Z,94.07
2019-03-21T04:38:21.793Z,87.47
2019-03-21T04:40:51.359Z,82.60
2019-03-21T04:43:20.575Z,93.83
2019-03-21T04:45:50.106Z,85.83
2019-03-21T04:48:19.627Z,94.73
2019-03-21T04:50:48.795Z,90.80
2019-03-21T04:53:18.532Z,90.50
2019-03-21T04:55:47.806Z,98.07
2019-03-21T04:58:17.458Z,96.63
2019-03-21T05:00:47.147Z,101.47
2019-03-21T05:03:16.327Z,95.57
2019-03-21T05:05:46.155Z,94.03
2019-03-21T05:08:15.786Z,94.87
2019-03-21T05:10:45.672Z,97.97
2019-03-21T05:13:15.076Z,98.23
2019-03-21T05:15:44.585Z,92.17
2019-03-21T05:18:16.888Z,107.97
2019-03-21T05:20:46.359Z,104.50
2019-03-21T05:23:16.175Z,103.60
2019-03-21T05:25:45.354Z,98.20
2019-03-21T05:28:14.676Z,94.03
2019-03-21T05:31:02.727Z,106.80
2019-03-21T05:33:31.898Z,101.90
2019-03-21T05:36:01.419Z,110.17
2019-03-21T05:38:31.852Z,103.73
2019-03-21T05:41:01.064Z,102.30
2019-03-21T05:43:37.612Z,101.23
2019-03-21T05:46:07.125Z,101.47
2019-03-21T05:48:36.628Z,104.30
2019-03-21T05:51:05.829Z,101.90
2019-03-21T05:53:35.337Z,92.10
2019-03-21T05:56:04.778Z,101.07
2019-03-21T05:58:34.335Z,96.30
2019-03-21T06:01:03.529Z,97.23
2019-03-21T06:03:35.525Z,88.40
2019-03-21T06:06:17.098Z,87.73
2019-03-21T06:08:46.500Z,91.57
2019-03-21T06:11:15.779Z,90.63
2019-03-21T06:13:45.305Z,88.47
2019-03-21T06:16:14.789Z,91.47
2019-03-21T06:18:48.544Z,77.67
2019-03-21T06:21:47.309Z,85.93
2019-03-21T06:24:53.638Z,84.93
2019-03-21T06:27:28.609Z,86.63
2019-03-21T06:29:58.315Z,79.83
2019-03-21T06:32:27.901Z,82.97
2019-03-21T06:34:57.538Z,73.97
2019-03-21T06:37:28.890Z,76.37
2019-03-21T06:39:58.345Z,78.77
2019-03-21T06:42:27.525Z,70.00
2019-03-21T06:44:57.096Z,67.27
2019-03-21T06:47:26.595Z,75.63
2019-03-21T06:49:56.315Z,72.00
2019-03-21T06:52:25.477Z,70.47
2019-03-21T06:54:55.016Z,76.63
2019-03-21T06:57:24.196Z,69.90
2019-03-21T06:59:54.031Z,67.27
2019-03-21T07:02:23.237Z,62.00
2019-03-21T07:04:52.429Z,57.40
2019-03-21T07:07:21.931Z,52.80
2019-03-21T07:09:51.433Z,53.57
2019-03-21T07:12:20.655Z,51.37
2019-03-21T07:14:50.144Z,60.93
2019-03-21T07:17:19.650Z,64.67
2019-03-21T07:19:49.182Z,66.93
2019-03-21T07:22:18.663Z,68.47
2019-03-21T07:24:48.278Z,71.40
2019-03-21T07:27:17.771Z,72.83
2019-03-21T07:29:46.979Z,67.17
2019-03-21T07:32:16.492Z,66.77
2019-03-21T07:34:45.659Z,65.97
2019-03-21T07:37:15.185Z,65.70
2019-03-21T07:39:44.393Z,60.33
2019-03-21T07:42:13.888Z,55.17
2019-03-21T07:44:43.363Z,62.67
2019-03-21T07:47:13.497Z,60.73
2019-03-21T07:49:43.121Z,53.90
2019-03-21T07:52:12.629Z,53.27
2019-03-21T07:54:41.842Z,50.73
2019-03-21T07:57:11.333Z,52.73
2019-03-21T07:59:40.837Z,46.70
2019-03-21T08:02:10.047Z,50.07
2019-03-21T08:04:39.247Z,50.10
2019-03-21T08:07:08.669Z,52.10
2019-03-21T08:09:37.880Z,47.20
2019-03-21T08:12:07.342Z,52.03
2019-03-21T08:14:36.841Z,43.77
2019-03-21T08:17:06.089Z,47.97
2019-03-21T08:19:35.354Z,44.33
2019-03-21T08:22:04.577Z,37.83
2019-03-21T08:24:33.752Z,40.37
2019-03-21T08:27:03.348Z,46.53
2019-03-21T08:29:32.858Z,48.07
2019-03-21T08:32:02.669Z,44.07
2019-03-21T08:34:31.879Z,48.27
2019-03-21T08:37:01.374Z,45.73
2019-03-21T08:39:31.187Z,46.27
2019-03-21T08:42:00.405Z,45.53
2019-03-21T08:44:29.888Z,47.33
2019-03-21T08:46:59.405Z,46.33
2019-03-21T08:49:28.567Z,43.33
2019-03-21T08:51:57.800Z,51.43
2019-03-21T08:54:26.988Z,48.80
2019-03-21T08:56:56.203Z,51.80
2019-03-21T08:59:25.707Z,55.57
2019-03-21T09:01:54.847Z,55.37
2019-03-21T09:04:24.070Z,45.70
2019-03-21T09:06:53.852Z,50.17
2019-03-21T09:09:23.015Z,48.63
2019-03-21T09:11:52.213Z,47.97
2019-03-21T09:14:22.496Z,36.53
2019-03-21T09:16:53.010Z,40.37
2019-03-21T09:19:22.455Z,31.47
2019-03-21T09:21:52.061Z,34.20
2019-03-21T09:24:21.234Z,36.50
2019-03-21T09:26:50.778Z,38.23
2019-03-21T09:29:20.133Z,39.73
2019-03-21T09:31:49.573Z,39.87
2019-03-21T09:34:18.774Z,44.17
2019-03-21T09:36:47.951Z,41.10
2019-03-21T09:39:17.377Z,42.53
2019-03-21T09:41:46.880Z,47.03
2019-03-21T09:44:23.918Z,47.53
2019-03-21T09:46:53.777Z,47.77
2019-03-21T09:49:23.004Z,53.97
2019-03-21T09:51:52.482Z,52.93
2019-03-21T09:54:22.405Z,54.63
2019-03-21T09:56:52.013Z,54.60
2019-03-21T09:59:21.498Z,53.00
2019-03-21T10:01:51.014Z,55.33
2019-03-21T10:04:20.187Z,48.83
2019-03-21T10:06:49.404Z,55.90
2019-03-21T10:09:19.458Z,50.70
2019-03-21T10:11:48.945Z,49.87
2019-03-21T10:14:18.765Z,51.00
2019-03-21T10:16:47.956Z,46.33
2019-03-21T10:19:17.439Z,42.63
2019-03-21T10:21:46.965Z,45.67
2019-03-21T10:24:16.173Z,42.03
2019-03-21T10:26:45.761Z,44.70
2019-03-21T10:29:14.921Z,40.37
2019-03-21T10:31:44.483Z,37.53
2019-03-21T10:34:13.690Z,32.97
2019-03-21T10:36:43.280Z,36.97
2019-03-21T10:39:12.471Z,29.27
2019-03-21T10:41:41.646Z,33.30
2019-03-21T10:44:10.790Z,33.80
2019-03-21T10:46:39.974Z,34.80
2019-03-21T10:49:09.177Z,33.10
2019-03-21T10:51:38.790Z,40.93
2019-03-21T10:54:08.316Z,43.13
2019-03-21T10:56:37.796Z,41.10
2019-03-21T10:59:07.306Z,43.00
2019-03-21T11:01:36.916Z,42.70
2019-03-21T11:04:06.524Z,45.77
2019-03-21T11:06:35.693Z,44.60
2019-03-21T11:09:08.828Z,43.43
2019-03-21T11:11:38.320Z,48.67
2019-03-21T11:14:08.230Z,42.03
2019-03-21T11:16:37.737Z,44.77
2019-03-21T11:19:07.022Z,49.13
2019-03-21T11:21:36.650Z,47.57
2019-03-21T11:24:06.158Z,44.37
2019-03-21T11:26:35.968Z,48.70
2019-03-21T11:29:05.291Z,45.53
2019-03-21T11:31:35.085Z,48.50
2019-03-21T11:34:04.286Z,46.50
2019-03-21T11:36:38.108Z,42.50
2019-03-21T11:39:06.284Z,42.60
2019-03-21T11:41:35.480Z,46.53
2019-03-21T11:44:04.974Z,43.17
2019-03-21T11:46:34.467Z,53.27
2019-03-21T11:49:03.974Z,47.50
2019-03-21T11:51:33.480Z,56.57
2019-03-21T11:54:02.989Z,53.83
2019-03-21T11:56:32.167Z,58.70
2019-03-21T11:59:01.600Z,57.57
2019-03-21T12:01:31.395Z,53.87
2019-03-21T12:04:00.911Z,47.83
2019-03-21T12:06:30.413Z,44.40
2019-03-21T12:08:59.576Z,49.00
2019-03-21T12:11:28.834Z,47.83
2019-03-21T12:13:58.418Z,41.43
2019-03-21T12:16:28.239Z,43.50
2019-03-21T12:18:57.412Z,45.00
2019-03-21T12:21:26.931Z,47.77
2019-03-21T12:23:56.083Z,52.47
2019-03-21T12:26:25.842Z,45.20
2019-03-21T12:28:55.656Z,45.30
2019-03-21T12:31:24.886Z,48.03
2019-03-21T12:33:54.037Z,50.63
2019-03-21T12:36:23.558Z,51.37
2019-03-21T12:38:53.364Z,51.73
2019-03-21T12:41:22.873Z,51.17
2019-03-21T12:43:52.114Z,58.43
2019-03-21T12:46:21.390Z,51.10
2019-03-21T12:48:50.880Z,42.90
2019-03-21T12:51:20.116Z,42.10
2019-03-21T12:53:50.201Z,45.83
2019-03-21T12:56:19.709Z,45.40
2019-03-21T12:58:48.934Z,49.33
2019-03-21T13:01:18.109Z,44.67
2019-03-21T13:03:47.915Z,44.57
2019-03-21T13:06:17.420Z,47.30
2019-03-21T13:08:46.597Z,37.10
2019-03-21T13:11:16.135Z,47.37
2019-03-21T13:13:45.638Z,50.63
2019-03-21T13:16:14.830Z,44.80
2019-03-21T13:18:44.341Z,52.43
2019-03-21T13:21:13.868Z,46.40
2019-03-21T13:23:43.350Z,51.83
2019-03-21T13:26:12.864Z,44.93
2019-03-21T13:28:43.079Z,56.93
2019-03-21T13:31:12.257Z,54.67
2019-03-21T13:33:41.768Z,54.87
2019-03-21T13:36:11.363Z,52.73
2019-03-21T13:38:40.788Z,51.87
2019-03-21T13:41:09.985Z,47.30
2019-03-21T13:43:39.520Z,43.50
2019-03-21T13:46:09.419Z,36.50
2019-03-21T13:48:38.624Z,45.07
2019-03-21T13:51:07.823Z,50.00
2019-03-21T13:53:36.998Z,40.77
2019-03-21T13:56:06.613Z,41.17
2019-03-21T13:58:35.888Z,40.73
2019-03-21T14:01:05.420Z,33.00
2019-03-21T14:03:34.924Z,25.63
2019-03-21T14:06:04.320Z,29.20
2019-03-21T14:08:33.839Z,24.17
2019-03-21T14:11:03.343Z,25.47
2019-03-21T14:13:32.526Z,25.50
2019-03-21T14:16:01.709Z,26.03
2019-03-21T14:18:31.242Z,27.70
2019-03-21T14:21:01.055Z,23.87
2019-03-21T14:23:30.265Z,25.07
2019-03-21T14:26:00.079Z,27.53
2019-03-21T14:28:29.307Z,24.63
2019-03-21T14:30:58.495Z,25.70
2019-03-21T14:33:27.972Z,29.83
2019-03-21T14:35:57.206Z,28.17
2019-03-21T14:38:26.656Z,29.53
2019-03-21T14:40:55.918Z,27.07
2019-03-21T14:43:25.205Z,30.10
2019-03-21T14:45:54.988Z,29.60
2019-03-21T14:48:24.801Z,28.37
2019-03-21T14:50:54.204Z,29.63
2019-03-21T14:53:28.730Z,29.83
2019-03-21T14:55:54.957Z,32.10
2019-03-21T14:58:25.112Z,29.30
2019-03-21T15:00:54.585Z,31.23
2019-03-21T15:03:24.083Z,32.47
2019-03-21T15:05:53.598Z,33.57
2019-03-21T15:08:22.808Z,34.67
2019-03-21T15:10:52.293Z,33.33
2019-03-21T15:13:22.120Z,36.53
2019-03-21T15:15:51.619Z,33.10
2019-03-21T15:18:21.431Z,34.70
2019-03-21T15:20:51.157Z,35.70
2019-03-21T15:23:20.979Z,35.67
2019-03-21T15:25:50.735Z,35.10
2019-03-21T15:28:20.486Z,36.00
2019-03-21T15:30:49.690Z,37.90
2019-03-21T15:33:19.590Z,38.63
2019-03-21T15:35:48.776Z,40.53
2019-03-21T15:38:18.296Z,37.67
2019-03-21T15:40:47.467Z,34.03
2019-03-21T15:43:17.056Z,37.70
2019-03-21T15:45:46.229Z,39.00
2019-03-21T15:48:15.701Z,38.80
2019-03-21T15:50:45.309Z,37.47
2019-03-21T15:53:14.827Z,39.60
2019-03-21T15:55:44.032Z,40.00
2019-03-21T15:58:13.201Z,40.93
2019-03-21T16:00:42.713Z,45.77
2019-03-21T16:03:13.251Z,42.37
2019-03-21T16:05:43.369Z,41.40
2019-03-21T16:08:12.870Z,43.47
2019-03-21T16:10:42.383Z,40.40
2019-03-21T16:13:11.884Z,46.53
2019-03-21T16:15:41.396Z,42.80
2019-03-21T16:18:10.593Z,40.73
2019-03-21T16:20:40.103Z,41.03
2019-03-21T16:23:09.603Z,40.63
2019-03-21T16:25:39.125Z,42.00
2019-03-21T16:28:08.921Z,40.07
2019-03-21T16:30:38.454Z,36.13
2019-03-21T16:33:07.636Z,43.93
2019-03-21T16:35:37.130Z,47.23
2019-03-21T16:38:06.649Z,44.67
2019-03-21T16:40:35.865Z,47.20
2019-03-21T16:43:05.734Z,47.40
2019-03-21T16:45:35.790Z,40.07
2019-03-21T16:48:05.352Z,44.40
2019-03-21T16:50:34.883Z,37.70
2019-03-21T16:53:04.158Z,46.43
2019-03-21T16:55:33.783Z,48.50
2019-03-21T16:58:02.984Z,43.60
2019-03-21T17:00:32.493Z,47.67
2019-03-21T17:03:01.666Z,46.03
2019-03-21T17:05:31.231Z,43.80
2019-03-21T17:08:10.502Z,49.07
2019-03-21T17:10:32.322Z,45.40
2019-03-21T17:13:04.511Z,40.80
2019-03-21T17:15:32.908Z,49.07
2019-03-21T17:18:02.139Z,46.20
2019-03-21T17:20:31.294Z,44.23
2019-03-21T17:23:00.815Z,45.00
2019-03-21T17:25:31.492Z,41.93
2019-03-21T17:28:00.989Z,40.23
2019-03-21T17:30:30.169Z,42.97
2019-03-21T17:32:59.653Z,46.03
2019-03-21T17:35:28.860Z,44.37
2019-03-21T17:37:58.357Z,40.60
2019-03-21T17:40:27.868Z,43.47
2019-03-21T17:42:57.367Z,45.97
2019-03-21T17:45:26.875Z,45.17
2019-03-21T17:47:56.685Z,47.83
2019-03-21T17:50:26.200Z,43.37
2019-03-21T17:52:56.208Z,45.27
2019-03-21T17:55:26.021Z,44.13
2019-03-21T17:57:55.625Z,44.37
2019-03-21T18:00:25.964Z,46.60
2019-03-21T18:02:55.769Z,45.73
2019-03-21T18:05:25.041Z,45.47
2019-03-21T18:07:54.475Z,42.63
2019-03-21T18:10:29.018Z,47.57
2019-03-21T18:12:58.928Z,40.00
2019-03-21T18:15:28.304Z,42.43
2019-03-21T18:17:58.231Z,42.93
2019-03-21T18:20:27.635Z,46.03
2019-03-21T18:22:56.813Z,43.73
2019-03-21T18:25:26.445Z,43.17
2019-03-21T18:27:55.615Z,47.53
2019-03-21T18:30:24.854Z,44.70
2019-03-21T18:32:54.453Z,46.03
2019-03-21T18:35:24.062Z,43.87
2019-03-21T18:37:53.300Z,45.73
2019-03-21T18:40:22.579Z,45.67
2019-03-21T18:42:51.725Z,49.40
2019-03-21T18:45:20.896Z,46.63
2019-03-21T18:47:50.352Z,53.33
2019-03-21T18:50:19.641Z,44.73
2019-03-21T18:52:49.944Z,47.10
2019-03-21T18:55:19.385Z,48.77
2019-03-21T18:57:49.304Z,48.23
2019-03-21T19:00:18.909Z,44.57
2019-03-21T19:02:48.425Z,47.80
2019-03-21T19:05:18.029Z,46.00
2019-03-21T19:07:47.220Z,49.20
2019-03-21T19:10:16.808Z,48.03
2019-03-21T19:12:45.995Z,45.93
2019-03-21T19:15:16.555Z,49.77
2019-03-21T19:17:46.064Z,47.93
2019-03-21T19:20:16.620Z,49.30
2019-03-21T19:22:46.183Z,48.00
2019-03-21T19:25:18.828Z,49.30
2019-03-21T19:27:47.168Z,48.17
2019-03-21T19:30:17.071Z,48.47
2019-03-21T19:32:46.414Z,48.73
2019-03-21T19:35:15.729Z,49.93
2019-03-21T19:37:45.260Z,49.10
2019-03-21T19:40:15.330Z,48.73
2019-03-21T19:42:44.914Z,45.07
2019-03-21T19:45:14.540Z,50.00
2019-03-21T19:47:43.781Z,46.87
2019-03-21T19:50:13.737Z,49.13
2019-03-21T19:52:43.236Z,50.23
2019-03-21T19:55:12.908Z,47.37
2019-03-21T19:57:43.213Z,51.17
2019-03-21T20:00:15.201Z,49.03
2019-03-21T20:02:44.741Z,56.07
2019-03-21T20:05:14.757Z,51.70
2019-03-21T20:07:44.501Z,53.00
2019-03-21T20:10:14.804Z,51.73
2019-03-21T20:12:43.999Z,50.67
2019-03-21T20:15:13.732Z,50.87
2019-03-21T20:17:43.355Z,56.87
2019-03-21T20:20:13.339Z,52.20
2019-03-21T20:22:42.517Z,56.53
2019-03-21T20:25:12.023Z,53.67
2019-03-21T20:27:41.859Z,56.70
2019-03-21T20:30:13.524Z,57.47
2019-03-21T20:32:43.128Z,57.53
2019-03-21T20:35:12.355Z,56.73
2019-03-21T20:37:42.229Z,58.07
2019-03-21T20:40:12.454Z,62.73
2019-03-21T20:42:42.008Z,60.53
2019-03-21T20:45:12.496Z,56.80
2019-03-21T20:47:41.763Z,57.33
2019-03-21T20:50:12.741Z,58.33
2019-03-21T20:52:42.229Z,63.20
2019-03-21T20:55:11.839Z,61.80
2019-03-21T20:57:41.350Z,64.27
2019-03-21T21:00:14.252Z,59.67
2019-03-21T21:02:43.445Z,64.07
2019-03-21T21:05:12.914Z,62.47
2019-03-21T21:07:42.285Z,64.60
2019-03-21T21:10:11.763Z,59.57
2019-03-21T21:12:41.560Z,65.43
2019-03-21T21:15:11.281Z,63.93
2019-03-21T21:17:43.145Z,66.17
2019-03-21T21:20:12.732Z,69.07
2019-03-21T21:22:42.152Z,54.37
2019-03-21T21:25:11.543Z,52.57
2019-03-21T21:27:49.541Z,56.47
2019-03-21T21:30:13.163Z,55.50
2019-03-21T21:32:42.379Z,58.77
2019-03-21T21:35:12.021Z,58.70
2019-03-21T21:37:41.222Z,56.47
2019-03-21T21:40:10.859Z,61.93
2019-03-21T21:42:40.086Z,58.87
2019-03-21T21:45:09.374Z,66.57
2019-03-21T21:47:39.043Z,66.90
2019-03-21T21:50:10.264Z,60.53
2019-03-21T21:52:42.124Z,64.03
2019-03-21T21:55:10.840Z,60.07
2019-03-21T21:57:40.322Z,59.77
2019-03-21T22:00:11.888Z,57.73
2019-03-21T22:02:41.710Z,62.47
2019-03-21T22:05:11.621Z,67.20
2019-03-21T22:07:41.439Z,62.97
2019-03-21T22:10:11.147Z,68.33
2019-03-21T22:12:40.968Z,64.53
2019-03-21T22:15:10.980Z,66.50
2019-03-21T22:17:40.186Z,70.17
2019-03-21T22:20:10.078Z,70.97
2019-03-21T22:22:39.659Z,74.00
2019-03-21T22:25:09.302Z,67.47
2019-03-21T22:27:38.589Z,70.90
2019-03-21T22:30:10.418Z,62.97
2019-03-21T22:32:40.177Z,69.47
2019-03-21T22:35:09.534Z,75.40
2019-03-21T22:37:39.116Z,75.40
2019-03-21T22:40:08.575Z,78.47
2019-03-21T22:42:38.705Z,75.03
2019-03-21T22:45:09.139Z,78.77
2019-03-21T22:47:38.334Z,72.30
2019-03-21T22:50:10.847Z,73.80
2019-03-21T22:52:40.104Z,80.97
2019-03-21T22:55:10.332Z,83.23
2019-03-21T22:57:39.541Z,73.60
2019-03-21T23:00:11.416Z,75.67
2019-03-21T23:02:40.623Z,79.23
2019-03-21T23:05:10.304Z,68.40
2019-03-21T23:07:39.550Z,77.27
2019-03-21T23:10:09.622Z,81.03
2019-03-21T23:12:38.795Z,72.67
2019-03-21T23:15:08.530Z,82.20
2019-03-21T23:17:38.662Z,73.00
2019-03-21T23:20:08.330Z,69.80
2019-03-21T23:22:37.864Z,56.27
2019-03-21T23:25:07.479Z,61.60
2019-03-21T23:27:36.978Z,60.87
2019-03-21T23:30:08.126Z,59.20
2019-03-21T23:32:37.441Z,56.03
2019-03-21T23:35:08.163Z,52.07
2019-03-21T23:37:38.276Z,58.27
2019-03-21T23:40:08.296Z,57.00
2019-03-21T23:42:37.558Z,57.13
2019-03-21T23:45:07.518Z,51.03
2019-03-21T23:47:37.121Z,47.97
2019-03-21T23:50:07.535Z,50.77
2019-03-21T23:52:36.949Z,51.93
2019-03-21T23:55:06.765Z,54.07
2019-03-21T23:57:36.483Z,51.97
